Time;durP1;ratioP1;P1;durP2;ratioP2;P2;SDS_P1;SDS_P2;PMS_P1;PMS_P2;Temp;Humidity;BMP_temperature;BMP_pressure;BME280_temperature;BME280_humidity;BME280_pressure;Samples;Min_cycle;Max_cycle;Signal;HPM_P1;HPM_P2
2021/11/19 12:27:53;;;;;;;11.90;6.07;;;14.00;99.90;;;;;;4965944;23;20243;-73
2021/11/19 12:30:28;;;;;;;11.83;6.47;;;13.80;99.90;;;;;;4954850;29;20208;-68
2021/11/19 12:33:04;;;;;;;14.37;6.80;;;13.90;99.90;;;;;;4954998;28;20207;-73
2021/11/19 12:35:36;;;;;;;13.80;7.83;;;13.90;99.90;;;;;;4955043;28;20287;-73
2021/11/19 12:38:06;;;;;;;13.67;6.40;;;14.00;99.90;;;;;;4954932;28;20208;-67
2021/11/19 12:40:41;;;;;;;16.60;7.40;;;14.00;99.90;;;;;;4955566;28;20208;-71
2021/11/19 12:43:38;;;;;;;18.77;7.53;;;14.00;99.90;;;;;;4958854;28;20215;-75
2021/11/19 12:46:18;;;;;;;14.77;7.50;;;14.20;99.90;;;;;;4953822;28;20246;-68
2021/11/19 12:49:12;;;;;;;11.03;6.27;;;14.30;99.90;;;;;;4958809;28;20203;-69
2021/11/19 12:51:42;;;;;;;15.13;6.97;;;14.10;99.90;;;;;;4956472;28;20218;-68
2021/11/19 12:54:21;;;;;;;13.47;6.53;;;14.00;99.90;;;;;;4958575;28;20228;-70
2021/11/19 12:57:15;;;;;;;17.13;7.00;;;13.90;99.90;;;;;;4958913;28;20215;-68
2021/11/19 12:59:52;;;;;;;12.27;6.53;;;14.00;99.90;;;;;;4958295;28;20207;-69
2021/11/19 13:02:29;;;;;;;11.33;6.13;;;14.00;99.90;;;;;;4958164;28;20215;-68
2021/11/19 13:05:16;;;;;;;15.93;6.67;;;13.90;99.90;;;;;;4958448;28;20234;-75
2021/11/19 13:08:08;;;;;;;15.57;6.97;;;13.90;99.90;;;;;;4956692;28;20235;-68
2021/11/19 13:10:45;;;;;;;13.30;5.90;;;13.90;99.90;;;;;;4976245;28;20218;-70
2021/11/19 13:13:32;;;;;;;12.57;6.47;;;13.80;99.90;;;;;;4976584;28;20203;-70
2021/11/19 13:16:35;;;;;;;9.90;5.37;;;13.80;99.90;;;;;;4975831;28;20211;-68
2021/11/19 13:19:05;;;;;;;13.87;6.30;;;13.90;99.90;;;;;;4933763;28;20247;-70
2021/11/19 13:21:50;;;;;;;14.00;6.57;;;13.80;99.90;;;;;;4956606;28;20216;-70
2021/11/19 13:24:40;;;;;;;12.07;6.67;;;14.00;99.90;;;;;;4956585;28;20250;-69
2021/11/19 13:27:44;;;;;;;12.47;6.00;;;13.90;99.90;;;;;;4956271;28;20802;-70
2021/11/19 13:30:41;;;;;;;10.70;6.20;;;13.70;99.90;;;;;;4956125;28;20214;-70
2021/11/19 13:33:24;;;;;;;13.27;6.40;;;13.70;99.90;;;;;;4956814;28;20208;-70
2021/11/19 13:36:32;;;;;;;12.33;7.17;;;13.60;99.90;;;;;;4956906;28;20232;-75
2021/11/19 13:39:15;;;;;;;11.37;6.37;;;13.70;99.90;;;;;;4957615;28;20691;-72
2021/11/19 13:42:32;;;;;;;12.47;6.20;;;13.60;99.90;;;;;;4957666;28;20204;-76
2021/11/19 13:45:12;;;;;;;9.33;5.43;;;13.70;99.90;;;;;;4945203;28;20232;-74
2021/11/19 13:48:17;;;;;;;15.40;6.37;;;13.70;99.90;;;;;;4957520;28;20243;-76
2021/11/19 13:51:14;;;;;;;19.47;6.77;;;13.70;99.90;;;;;;4955077;28;20212;-75
2021/11/19 13:53:57;;;;;;;12.93;6.73;;;14.30;99.90;;;;;;4956915;28;20214;-72
2021/11/19 13:56:28;;;;;;;15.33;7.50;;;14.40;99.90;;;;;;4957528;28;20240;-72
2021/11/19 13:59:03;;;;;;;12.90;6.87;;;14.30;99.90;;;;;;4957012;28;20208;-77
2021/11/19 14:01:42;;;;;;;15.37;8.37;;;14.40;99.90;;;;;;4957488;28;20270;-77
2021/11/19 14:04:22;;;;;;;14.33;7.67;;;14.30;99.90;;;;;;4957262;28;20238;-77
2021/11/19 14:06:57;;;;;;;14.53;7.17;;;14.30;99.90;;;;;;4957227;28;20239;-77
2021/11/19 14:09:35;;;;;;;12.13;6.80;;;14.00;99.90;;;;;;4957487;28;20214;-76
2021/11/19 14:12:03;;;;;;;11.07;6.33;;;13.90;99.90;;;;;;4957338;28;20208;-77
2021/11/19 14:14:36;;;;;;;14.43;6.50;;;13.90;99.90;;;;;;4957090;28;20265;-77
2021/11/19 14:17:06;;;;;;;12.47;6.33;;;13.90;99.90;;;;;;4957091;28;20220;-77
2021/11/19 14:19:46;;;;;;;11.53;6.10;;;13.80;99.90;;;;;;4956875;28;20236;-76
2021/11/19 14:22:20;;;;;;;11.87;6.20;;;13.70;99.90;;;;;;4957129;28;20207;-76
2021/11/19 14:24:59;;;;;;;12.77;6.70;;;13.70;99.90;;;;;;4956752;28;20263;-76
2021/11/19 14:27:31;;;;;;;12.67;6.77;;;13.70;99.90;;;;;;4956695;28;20235;-76
2021/11/19 14:30:00;;;;;;;10.87;5.70;;;13.70;99.90;;;;;;4956696;28;20208;-74
2021/11/19 14:32:32;;;;;;;11.13;6.43;;;13.70;99.90;;;;;;4957012;28;20705;-78
2021/11/19 14:35:01;;;;;;;13.73;7.27;;;13.70;99.90;;;;;;4956790;28;20735;-77
2021/11/19 14:37:34;;;;;;;11.53;6.37;;;13.70;99.90;;;;;;4956728;28;20299;-76
2021/11/19 14:40:06;;;;;;;13.30;7.10;;;13.70;99.90;;;;;;4956725;28;20212;-77
2021/11/19 14:42:37;;;;;;;13.37;6.77;;;13.70;99.90;;;;;;4956552;28;20546;-77
2021/11/19 14:45:11;;;;;;;11.63;6.53;;;13.70;99.90;;;;;;4956614;28;20220;-75
2021/11/19 14:47:44;;;;;;;15.63;7.07;;;13.60;99.90;;;;;;4956650;28;20240;-78
2021/11/19 14:53:07;;;;;;;11.57;6.57;;;13.60;99.90;;;;;;4956543;28;20242;-74
2021/11/19 14:55:38;;;;;;;12.63;6.67;;;13.60;99.90;;;;;;4956279;28;20238;-78
2021/11/19 14:58:18;;;;;;;12.53;5.73;;;13.70;99.90;;;;;;4956502;28;20580;-77
2021/11/19 15:00:48;;;;;;;13.33;7.10;;;13.70;99.90;;;;;;4956290;28;20257;-78
2021/11/19 15:03:19;;;;;;;14.17;6.60;;;13.60;99.90;;;;;;4956107;28;20203;-75
2021/11/19 15:05:48;;;;;;;12.80;6.47;;;13.70;99.90;;;;;;4955380;28;20279;-77
2021/11/19 15:08:28;;;;;;;11.70;6.37;;;13.80;99.90;;;;;;4956237;28;20231;-75
2021/11/19 15:11:06;;;;;;;16.23;6.77;;;13.80;99.90;;;;;;4956179;28;20229;-76
2021/11/19 15:13:36;;;;;;;13.17;6.70;;;13.80;99.90;;;;;;4955777;28;20212;-77
2021/11/19 15:16:10;;;;;;;15.50;6.70;;;13.90;99.90;;;;;;4956315;28;20218;-73
2021/11/19 15:18:50;;;;;;;11.00;6.57;;;13.80;99.90;;;;;;4956135;28;20215;-77
2021/11/19 15:21:30;;;;;;;12.03;6.00;;;13.80;99.90;;;;;;4956377;28;20219;-77
2021/11/19 15:24:01;;;;;;;11.73;6.27;;;13.70;99.90;;;;;;4955855;28;20227;-76
2021/11/19 15:26:46;;;;;;;14.03;5.97;;;13.70;99.90;;;;;;4955913;28;20211;-72
2021/11/19 15:29:20;;;;;;;11.70;5.87;;;13.60;99.90;;;;;;4955681;28;20216;-77
2021/11/19 15:31:55;;;;;;;13.50;5.53;;;13.50;99.90;;;;;;4956047;28;20211;-78
2021/11/19 15:34:28;;;;;;;10.03;5.93;;;13.60;99.90;;;;;;4955595;28;20802;-75
2021/11/19 15:37:16;;;;;;;13.53;6.33;;;13.60;99.90;;;;;;4955901;28;20208;-76
2021/11/19 15:39:46;;;;;;;12.53;6.47;;;13.60;99.90;;;;;;4955685;28;20212;-76
2021/11/19 15:42:13;;;;;;;11.37;5.80;;;13.50;99.90;;;;;;4955827;28;20208;-77
2021/11/19 15:44:44;;;;;;;10.93;6.43;;;13.40;99.90;;;;;;4955926;28;20235;-75
2021/11/19 15:47:11;;;;;;;12.00;6.20;;;13.30;99.90;;;;;;4955783;28;20267;-77
2021/11/19 15:49:41;;;;;;;10.63;5.67;;;13.20;99.90;;;;;;4955551;28;20665;-77
2021/11/19 15:52:12;;;;;;;12.63;6.20;;;13.20;99.90;;;;;;4957269;28;20211;-80
2021/11/19 15:54:46;;;;;;;12.00;5.70;;;13.30;99.90;;;;;;4957968;28;20228;-78
2021/11/19 15:57:35;;;;;;;12.57;6.03;;;13.30;99.90;;;;;;4955315;28;20212;-79
2021/11/19 16:00:10;;;;;;;14.90;6.07;;;13.40;99.90;;;;;;4954948;28;20212;-75
2021/11/19 16:02:59;;;;;;;18.17;8.23;;;13.30;99.90;;;;;;4955042;28;20207;-76
2021/11/19 16:05:54;;;;;;;14.17;6.50;;;13.20;99.90;;;;;;4945912;28;20249;-78
2021/11/19 16:08:27;;;;;;;12.43;5.67;;;13.30;99.90;;;;;;4954846;28;20258;-76
2021/11/19 16:11:25;;;;;;;12.23;6.70;;;13.20;99.90;;;;;;4954886;28;20687;-77
2021/11/19 16:13:56;;;;;;;11.07;5.97;;;13.20;99.90;;;;;;4954535;28;20574;-77
2021/11/19 16:16:26;;;;;;;9.50;5.37;;;13.20;99.90;;;;;;4954424;28;20219;-73
2021/11/19 16:18:55;;;;;;;10.53;5.80;;;13.20;99.90;;;;;;4954724;28;20218;-77
2021/11/19 16:21:25;;;;;;;11.60;5.80;;;13.20;99.90;;;;;;4954506;28;20214;-77
2021/11/19 16:23:52;;;;;;;11.40;5.80;;;13.40;99.90;;;;;;4954512;28;20224;-75
2021/11/19 16:26:22;;;;;;;15.00;6.00;;;13.40;99.90;;;;;;4954723;28;20211;-78
2021/11/19 16:28:49;;;;;;;13.03;5.83;;;13.50;99.90;;;;;;4954392;28;20228;-79
2021/11/19 16:31:21;;;;;;;9.80;5.47;;;13.50;99.90;;;;;;4954678;28;20211;-75
2021/11/19 16:33:48;;;;;;;10.53;5.57;;;13.50;99.90;;;;;;4954649;28;20215;-78
2021/11/19 16:36:19;;;;;;;13.43;6.47;;;13.50;99.90;;;;;;4954652;28;20224;-79
2021/11/19 16:38:47;;;;;;;9.80;5.87;;;13.60;99.90;;;;;;4954406;28;20207;-75
2021/11/19 16:41:15;;;;;;;12.23;6.33;;;13.40;99.90;;;;;;4954715;28;20648;-78
2021/11/19 16:43:44;;;;;;;13.57;6.20;;;13.40;99.90;;;;;;4954639;28;20215;-76
2021/11/19 16:46:21;;;;;;;12.23;6.20;;;13.30;99.90;;;;;;4954969;28;20223;-72
2021/11/19 16:48:50;;;;;;;10.03;5.87;;;13.30;99.90;;;;;;4954755;28;20294;-74
2021/11/19 16:51:20;;;;;;;10.63;5.83;;;13.20;99.90;;;;;;4954928;28;20216;-76
2021/11/19 16:53:48;;;;;;;10.47;5.43;;;13.10;99.90;;;;;;4954289;28;20208;-78
2021/11/19 16:56:16;;;;;;;12.67;6.33;;;13.20;99.90;;;;;;4954694;28;20207;-75
2021/11/19 16:58:44;;;;;;;13.40;5.70;;;13.10;99.90;;;;;;4954290;28;20212;-76
2021/11/19 17:01:14;;;;;;;9.83;5.53;;;13.10;99.90;;;;;;4954409;28;20212;-76
2021/11/19 17:03:42;;;;;;;12.80;6.50;;;13.20;99.90;;;;;;4954510;28;20208;-76
2021/11/19 17:06:11;;;;;;;12.40;6.37;;;13.20;99.90;;;;;;4954308;28;20657;-79
2021/11/19 17:08:39;;;;;;;9.93;5.67;;;13.20;99.90;;;;;;4954441;28;20235;-77
2021/11/19 17:11:06;;;;;;;11.87;6.40;;;13.20;99.90;;;;;;4954472;28;20299;-79
2021/11/19 17:13:35;;;;;;;11.63;6.23;;;13.30;99.90;;;;;;4954332;28;20204;-79
2021/11/19 17:16:04;;;;;;;12.30;6.30;;;13.30;99.90;;;;;;4954401;28;20212;-80
2021/11/19 17:18:31;;;;;;;10.50;6.00;;;13.30;99.90;;;;;;4953973;28;20223;-81
2021/11/19 17:20:58;;;;;;;11.97;6.13;;;13.30;99.90;;;;;;4954331;28;20208;-82
2021/11/19 17:23:26;;;;;;;11.93;5.97;;;13.30;99.90;;;;;;4954466;28;20296;-80
2021/11/19 17:25:53;;;;;;;10.40;5.70;;;13.40;99.90;;;;;;4954263;28;20728;-79
2021/11/19 17:28:23;;;;;;;10.87;5.93;;;13.40;99.90;;;;;;4955606;28;20236;-81
2021/11/19 17:30:50;;;;;;;11.93;5.90;;;13.30;99.90;;;;;;4957877;28;20208;-79
2021/11/19 17:33:17;;;;;;;10.37;5.90;;;13.30;99.90;;;;;;4957777;28;20620;-81
2021/11/19 17:35:46;;;;;;;11.47;5.73;;;13.30;99.90;;;;;;4953893;28;20697;-76
2021/11/19 17:38:14;;;;;;;12.60;6.33;;;13.20;99.90;;;;;;4958345;28;20210;-78
2021/11/19 17:40:42;;;;;;;10.83;5.70;;;13.20;99.90;;;;;;4957385;28;20588;-77
2021/11/19 17:43:12;;;;;;;11.67;6.20;;;13.30;99.90;;;;;;4973268;28;20556;-77
2021/11/19 17:45:42;;;;;;;11.57;5.77;;;13.30;99.90;;;;;;4970148;28;20279;-75
2021/11/19 17:48:12;;;;;;;11.80;6.27;;;13.30;99.90;;;;;;4957492;28;20235;-75
2021/11/19 17:50:41;;;;;;;11.07;5.93;;;13.30;99.90;;;;;;4957530;28;20215;-75
2021/11/19 17:53:09;;;;;;;14.43;7.40;;;13.20;99.90;;;;;;4955117;28;20204;-71
2021/11/19 17:55:40;;;;;;;12.17;6.80;;;13.10;99.90;;;;;;4967710;28;20667;-73
2021/11/19 17:58:10;;;;;;;13.63;7.47;;;13.20;99.90;;;;;;4956257;28;20239;-70
2021/11/19 18:00:40;;;;;;;21.70;11.23;;;13.20;99.90;;;;;;4958940;28;20219;-75
2021/11/19 18:03:07;;;;;;;12.43;7.40;;;13.20;99.90;;;;;;4973932;28;20671;-71
2021/11/19 18:05:34;;;;;;;11.13;6.27;;;13.30;99.90;;;;;;4955193;28;20264;-77
2021/11/19 18:08:02;;;;;;;12.77;6.53;;;13.40;99.90;;;;;;4955319;28;20325;-72
2021/11/19 18:10:29;;;;;;;15.30;7.13;;;13.40;99.90;;;;;;4955559;28;20208;-75
2021/11/19 18:12:55;;;;;;;13.33;7.33;;;13.50;99.90;;;;;;4954755;28;20196;-70
2021/11/19 18:15:24;;;;;;;15.47;6.77;;;13.40;99.90;;;;;;4954879;28;20315;-72
2021/11/19 18:17:54;;;;;;;11.80;6.97;;;13.40;99.90;;;;;;4955355;28;20215;-78
2021/11/19 18:20:26;;;;;;;12.70;6.70;;;13.30;99.90;;;;;;4957390;28;20592;-77
2021/11/19 18:22:54;;;;;;;13.60;7.23;;;13.30;99.90;;;;;;4958266;28;20216;-84
2021/11/19 18:25:25;;;;;;;11.57;6.93;;;13.20;99.90;;;;;;4955895;28;20235;-74
2021/11/19 18:27:52;;;;;;;12.40;6.90;;;13.20;99.90;;;;;;4955174;28;20239;-72
2021/11/19 18:30:23;;;;;;;12.47;6.77;;;13.20;99.90;;;;;;4954744;28;20230;-71
2021/11/19 18:32:52;;;;;;;12.00;6.80;;;13.30;99.90;;;;;;4956446;28;20214;-71
2021/11/19 18:35:21;;;;;;;12.10;7.30;;;13.10;99.90;;;;;;4956497;28;20787;-71
2021/11/19 18:37:50;;;;;;;10.87;6.63;;;13.10;99.90;;;;;;4956332;28;20223;-72
2021/11/19 18:40:20;;;;;;;12.80;7.30;;;13.10;99.90;;;;;;4956372;28;20219;-70
2021/11/19 18:42:47;;;;;;;11.90;6.47;;;13.10;99.90;;;;;;4956171;28;20208;-72
2021/11/19 18:45:15;;;;;;;15.60;7.03;;;13.00;99.90;;;;;;4955881;28;20312;-71
2021/11/19 18:47:43;;;;;;;10.83;6.60;;;13.10;99.90;;;;;;4956241;28;20220;-71
2021/11/19 18:50:14;;;;;;;13.07;6.60;;;13.00;99.90;;;;;;4956193;28;20212;-71
2021/11/19 18:52:43;;;;;;;15.30;6.90;;;13.10;99.90;;;;;;4956495;28;20573;-71
2021/11/19 18:55:13;;;;;;;12.57;6.17;;;13.20;99.90;;;;;;4955983;28;20240;-70
2021/11/19 18:57:40;;;;;;;12.90;6.80;;;13.20;99.90;;;;;;4956194;28;20211;-71
2021/11/19 19:00:12;;;;;;;11.10;5.80;;;13.30;99.90;;;;;;4956010;28;20212;-71
2021/11/19 19:02:40;;;;;;;10.87;6.10;;;13.20;99.90;;;;;;4956216;28;20287;-73
2021/11/19 19:05:09;;;;;;;10.93;6.10;;;13.20;99.90;;;;;;4956047;28;20779;-75
2021/11/19 19:07:38;;;;;;;10.10;5.83;;;13.20;99.90;;;;;;4951863;28;20214;-78
2021/11/19 19:10:09;;;;;;;11.33;6.10;;;13.20;99.90;;;;;;4957120;28;20213;-75
2021/11/19 19:12:41;;;;;;;11.23;5.90;;;13.20;99.90;;;;;;4956393;28;20208;-78
2021/11/19 19:15:09;;;;;;;12.83;5.90;;;13.20;99.90;;;;;;4974029;28;20323;-72
2021/11/19 19:17:39;;;;;;;12.77;6.30;;;13.20;99.90;;;;;;4967494;28;20216;-77
2021/11/19 19:20:08;;;;;;;10.03;5.20;;;13.10;99.90;;;;;;4955632;28;20212;-74
2021/11/19 19:22:38;;;;;;;11.67;5.13;;;13.10;99.90;;;;;;4955543;28;20208;-75
2021/11/19 19:25:06;;;;;;;9.07;5.43;;;13.10;99.90;;;;;;4955080;28;20228;-73
2021/11/19 19:27:40;;;;;;;9.57;5.27;;;13.10;99.90;;;;;;4942950;28;20222;-73
2021/11/19 19:30:09;;;;;;;9.67;5.07;;;13.20;99.90;;;;;;4956241;28;20207;-79
2021/11/19 19:32:37;;;;;;;9.50;5.23;;;13.30;99.90;;;;;;4955853;28;20244;-75
2021/11/19 19:35:07;;;;;;;9.93;5.87;;;13.30;99.90;;;;;;4955673;28;20231;-73
2021/11/19 19:37:46;;;;;;;8.83;5.37;;;13.30;99.90;;;;;;4954753;28;20273;-75
2021/11/19 19:40:26;;;;;;;9.60;5.50;;;13.30;99.90;;;;;;4955273;28;20208;-74
2021/11/19 19:42:56;;;;;;;7.97;4.50;;;13.30;99.90;;;;;;4955751;28;20295;-73
2021/11/19 19:45:28;;;;;;;9.37;4.90;;;13.30;99.90;;;;;;4955141;28;20228;-72
2021/11/19 19:47:56;;;;;;;9.17;5.47;;;13.30;99.90;;;;;;4954748;28;20539;-71
2021/11/19 19:50:23;;;;;;;8.73;5.10;;;13.30;99.90;;;;;;4954524;28;20210;-78
2021/11/19 19:52:52;;;;;;;9.70;5.60;;;13.30;99.90;;;;;;4954824;28;20207;-73
2021/11/19 19:55:20;;;;;;;10.70;6.10;;;13.40;99.90;;;;;;4954993;28;20227;-72
2021/11/19 19:57:47;;;;;;;10.63;5.53;;;13.40;99.90;;;;;;4954822;28;20208;-79
2021/11/19 20:00:18;;;;;;;9.30;5.57;;;13.40;99.90;;;;;;4954651;28;20299;-70
2021/11/19 20:02:45;;;;;;;7.77;4.60;;;13.40;99.90;;;;;;4955081;28;20223;-78
2021/11/19 20:05:12;;;;;;;9.03;4.80;;;13.30;99.90;;;;;;4954889;28;20224;-72
2021/11/19 20:07:39;;;;;;;9.60;5.33;;;13.40;99.90;;;;;;4954771;28;20568;-71
2021/11/19 20:10:09;;;;;;;9.50;5.37;;;13.40;99.90;;;;;;4954833;28;20235;-70
2021/11/19 20:12:37;;;;;;;12.20;8.07;;;13.40;99.90;;;;;;4955150;28;20214;-71
2021/11/19 20:15:08;;;;;;;10.03;6.17;;;13.40;99.90;;;;;;4954640;28;20238;-70
2021/11/19 20:17:36;;;;;;;10.90;6.03;;;13.40;99.90;;;;;;4955337;28;20214;-70
2021/11/19 20:20:05;;;;;;;14.73;8.87;;;13.40;99.90;;;;;;4955053;28;20204;-76
2021/11/19 20:22:32;;;;;;;13.13;6.33;;;13.40;99.90;;;;;;4955008;28;20243;-69
2021/11/19 20:24:59;;;;;;;12.43;7.23;;;13.40;99.90;;;;;;4954989;28;20235;-72
2021/11/19 20:27:29;;;;;;;13.53;6.77;;;13.40;99.90;;;;;;4954903;28;20222;-76
2021/11/19 20:29:58;;;;;;;11.07;5.57;;;13.30;99.90;;;;;;4954751;28;20728;-74
2021/11/19 20:32:28;;;;;;;8.50;5.00;;;13.20;99.90;;;;;;4954865;28;20219;-70
2021/11/19 20:34:56;;;;;;;10.63;5.07;;;13.10;99.90;;;;;;4955193;28;20220;-74
2021/11/19 20:37:26;;;;;;;10.10;4.93;;;13.00;99.90;;;;;;4954951;28;20204;-70
2021/11/19 20:39:56;;;;;;;8.60;4.67;;;13.10;99.90;;;;;;4955360;28;20261;-72
2021/11/19 20:42:27;;;;;;;8.27;4.77;;;13.20;99.90;;;;;;4954921;28;20597;-73
2021/11/19 20:44:57;;;;;;;10.23;5.40;;;13.20;99.90;;;;;;4955010;28;20238;-72
2021/11/19 20:47:26;;;;;;;8.47;4.57;;;13.30;99.90;;;;;;4955195;28;20212;-79
2021/11/19 20:49:54;;;;;;;8.90;4.73;;;13.30;99.90;;;;;;4954772;28;20713;-73
2021/11/19 20:52:25;;;;;;;7.97;4.30;;;13.40;99.90;;;;;;4954974;28;20218;-80
2021/11/19 20:54:52;;;;;;;8.40;4.33;;;13.40;99.90;;;;;;4954872;28;20251;-70
2021/11/19 20:57:20;;;;;;;6.23;3.67;;;13.40;99.90;;;;;;4954737;28;20211;-79
2021/11/19 20:59:49;;;;;;;9.27;4.40;;;13.50;99.90;;;;;;4955073;28;20212;-72
2021/11/19 21:02:19;;;;;;;7.73;4.77;;;13.50;99.90;;;;;;4956643;28;20220;-70
2021/11/19 21:04:47;;;;;;;9.20;4.63;;;13.40;99.90;;;;;;4958589;28;20228;-77
2021/11/19 21:07:14;;;;;;;7.23;4.17;;;13.40;99.90;;;;;;4958556;28;20212;-72
2021/11/19 21:09:41;;;;;;;6.83;3.80;;;13.40;99.90;;;;;;4958425;28;20231;-70
2021/11/19 21:12:12;;;;;;;7.90;4.87;;;13.40;99.90;;;;;;4958616;28;20218;-70
2021/11/19 21:14:43;;;;;;;10.60;4.87;;;13.40;99.90;;;;;;4958264;28;20244;-80
2021/11/19 21:17:11;;;;;;;7.70;4.17;;;13.40;99.90;;;;;;4958595;28;20550;-79
2021/11/19 21:19:44;;;;;;;7.77;4.53;;;13.30;99.90;;;;;;4958320;28;20215;-70
2021/11/19 21:22:11;;;;;;;6.63;4.20;;;13.40;99.90;;;;;;4958115;28;20212;-70
2021/11/19 21:24:39;;;;;;;8.97;4.67;;;13.30;99.90;;;;;;4958081;28;20235;-69
2021/11/19 21:27:06;;;;;;;9.03;5.40;;;13.30;99.90;;;;;;4958442;28;20220;-81
2021/11/19 21:29:33;;;;;;;10.53;6.27;;;13.20;99.90;;;;;;4958121;28;20611;-72
2021/11/19 21:32:06;;;;;;;7.37;4.63;;;13.20;99.90;;;;;;4958055;28;20212;-78
2021/11/19 21:34:35;;;;;;;6.70;4.13;;;13.20;99.90;;;;;;4957798;28;20234;-76
2021/11/19 21:37:05;;;;;;;7.63;4.63;;;13.20;99.90;;;;;;4957906;28;20560;-79
2021/11/19 21:39:33;;;;;;;6.90;4.40;;;13.20;99.90;;;;;;4958107;28;20286;-73
2021/11/19 21:42:03;;;;;;;7.53;4.10;;;13.20;99.90;;;;;;4957812;28;20212;-69
2021/11/19 21:44:33;;;;;;;8.40;4.43;;;13.10;99.90;;;;;;4957806;28;20318;-73
2021/11/19 21:47:01;;;;;;;7.73;4.70;;;13.10;99.90;;;;;;4957929;28;20219;-69
2021/11/19 21:49:29;;;;;;;6.93;4.40;;;13.10;99.90;;;;;;4957816;28;20239;-72
2021/11/19 21:52:01;;;;;;;8.57;4.80;;;13.10;99.90;;;;;;4957525;28;20306;-76
2021/11/19 21:54:40;;;;;;;7.33;4.87;;;13.10;99.90;;;;;;4957429;28;20730;-71
2021/11/19 21:57:09;;;;;;;8.50;5.03;;;13.10;99.90;;;;;;4957615;28;20668;-68
2021/11/19 21:59:39;;;;;;;8.80;5.10;;;13.10;99.90;;;;;;4957576;28;20207;-71
